sensor_id;sensor_type;location;lat;lon;timestamp;temperature;humidity
42833;DHT22;64089;51.478;5.692;2023-04-15T00:00:40;8.00;99.90
42833;DHT22;64089;51.478;5.692;2023-04-15T00:03:06;7.90;99.90
42833;DHT22;64089;51.478;5.692;2023-04-15T00:05:32;8.00;99.90
42833;DHT22;64089;51.478;5.692;2023-04-15T00:07:59;7.90;99.90
42833;DHT22;64089;51.478;5.692;2023-04-15T00:10:26;7.90;99.90
42833;DHT22;64089;51.478;5.692;2023-04-15T00:12:51;7.90;99.90
42833;DHT22;64089;51.478;5.692;2023-04-15T00:15:17;7.80;99.90
42833;DHT22;64089;51.478;5.692;2023-04-15T00:17:43;7.80;99.90
42833;DHT22;64089;51.478;5.692;2023-04-15T00:20:09;7.80;99.90
42833;DHT22;64089;51.478;5.692;2023-04-15T00:22:34;7.70;99.90
42833;DHT22;64089;51.478;5.692;2023-04-15T00:25:00;7.70;99.90
42833;DHT22;64089;51.478;5.692;2023-04-15T00:27:26;7.70;99.90
42833;DHT22;64089;51.478;5.692;2023-04-15T00:29:52;7.70;99.90
42833;DHT22;64089;51.478;5.692;2023-04-15T00:32:17;7.70;99.90
42833;DHT22;64089;51.478;5.692;2023-04-15T00:34:43;7.60;99.90
42833;DHT22;64089;51.478;5.692;2023-04-15T00:37:09;7.60;99.90
42833;DHT22;64089;51.478;5.692;2023-04-15T00:39:35;7.60;99.90
42833;DHT22;64089;51.478;5.692;2023-04-15T00:42:02;7.60;99.90
42833;DHT22;64089;51.478;5.692;2023-04-15T00:44:28;7.50;99.90
42833;DHT22;64089;51.478;5.692;2023-04-15T00:46:54;7.50;99.90
42833;DHT22;64089;51.478;5.692;2023-04-15T00:49:20;7.50;99.90
42833;DHT22;64089;51.478;5.692;2023-04-15T00:51:45;7.50;99.90
42833;DHT22;64089;51.478;5.692;2023-04-15T00:54:11;7.40;99.90
42833;DHT22;64089;51.478;5.692;2023-04-15T00:56:37;7.40;99.90
42833;DHT22;64089;51.478;5.692;2023-04-15T00:59:04;7.40;99.90
42833;DHT22;64089;51.478;5.692;2023-04-15T01:01:32;7.40;99.90
42833;DHT22;64089;51.478;5.692;2023-04-15T01:03:58;7.40;99.90
42833;DHT22;64089;51.478;5.692;2023-04-15T01:06:23;7.30;99.90
42833;DHT22;64089;51.478;5.692;2023-04-15T01:08:49;7.30;99.90
42833;DHT22;64089;51.478;5.692;2023-04-15T01:11:16;7.20;99.90
42833;DHT22;64089;51.478;5.692;2023-04-15T01:13:42;7.20;99.90
42833;DHT22;64089;51.478;5.692;2023-04-15T01:16:08;7.20;99.90
42833;DHT22;64089;51.478;5.692;2023-04-15T01:18:35;7.10;99.90
42833;DHT22;64089;51.478;5.692;2023-04-15T01:21:02;7.20;99.90
42833;DHT22;64089;51.478;5.692;2023-04-15T01:23:29;7.10;99.90
42833;DHT22;64089;51.478;5.692;2023-04-15T01:25:55;7.10;99.90
42833;DHT22;64089;51.478;5.692;2023-04-15T01:28:21;7.10;99.90
42833;DHT22;64089;51.478;5.692;2023-04-15T01:30:46;7.10;99.90
42833;DHT22;64089;51.478;5.692;2023-04-15T01:33:12;7.10;99.90
42833;DHT22;64089;51.478;5.692;2023-04-15T01:35:38;7.00;99.90
42833;DHT22;64089;51.478;5.692;2023-04-15T01:38:08;7.00;99.90
42833;DHT22;64089;51.478;5.692;2023-04-15T01:40:34;7.00;99.90
42833;DHT22;64089;51.478;5.692;2023-04-15T01:43:03;6.90;99.90
42833;DHT22;64089;51.478;5.692;2023-04-15T01:45:29;6.90;99.90
42833;DHT22;64089;51.478;5.692;2023-04-15T01:47:54;6.90;99.90
42833;DHT22;64089;51.478;5.692;2023-04-15T01:50:20;6.80;99.90
42833;DHT22;64089;51.478;5.692;2023-04-15T01:52:46;6.80;99.90
42833;DHT22;64089;51.478;5.692;2023-04-15T01:55:12;6.80;99.90
42833;DHT22;64089;51.478;5.692;2023-04-15T01:57:38;6.80;99.90
42833;DHT22;64089;51.478;5.692;2023-04-15T02:00:05;6.80;99.90
42833;DHT22;64089;51.478;5.692;2023-04-15T02:02:32;6.70;99.90
42833;DHT22;64089;51.478;5.692;2023-04-15T02:04:58;6.80;99.90
42833;DHT22;64089;51.478;5.692;2023-04-15T02:07:23;6.70;99.90
42833;DHT22;64089;51.478;5.692;2023-04-15T02:09:49;6.70;99.90
42833;DHT22;64089;51.478;5.692;2023-04-15T02:12:15;6.70;99.90
42833;DHT22;64089;51.478;5.692;2023-04-15T02:14:41;6.80;99.90
42833;DHT22;64089;51.478;5.692;2023-04-15T02:17:06;6.80;99.90
42833;DHT22;64089;51.478;5.692;2023-04-15T02:19:36;6.70;99.90
42833;DHT22;64089;51.478;5.692;2023-04-15T02:22:01;6.70;99.90
42833;DHT22;64089;51.478;5.692;2023-04-15T02:24:29;6.60;99.90
42833;DHT22;64089;51.478;5.692;2023-04-15T02:26:55;6.70;99.90
42833;DHT22;64089;51.478;5.692;2023-04-15T02:29:21;6.60;99.90
42833;DHT22;64089;51.478;5.692;2023-04-15T02:31:47;6.60;99.90
42833;DHT22;64089;51.478;5.692;2023-04-15T02:34:13;6.60;99.90
42833;DHT22;64089;51.478;5.692;2023-04-15T02:36:39;6.60;99.90
42833;DHT22;64089;51.478;5.692;2023-04-15T02:39:05;6.60;99.90
42833;DHT22;64089;51.478;5.692;2023-04-15T02:41:31;6.50;99.90
42833;DHT22;64089;51.478;5.692;2023-04-15T02:43:56;6.50;99.90
42833;DHT22;64089;51.478;5.692;2023-04-15T02:46:22;6.50;99.90
42833;DHT22;64089;51.478;5.692;2023-04-15T02:48:49;6.50;99.90
42833;DHT22;64089;51.478;5.692;2023-04-15T02:51:19;6.50;99.90
42833;DHT22;64089;51.478;5.692;2023-04-15T02:53:48;6.40;99.90
42833;DHT22;64089;51.478;5.692;2023-04-15T02:56:14;6.40;99.90
42833;DHT22;64089;51.478;5.692;2023-04-15T02:58:43;6.40;99.90
42833;DHT22;64089;51.478;5.692;2023-04-15T03:01:09;6.30;99.90
42833;DHT22;64089;51.478;5.692;2023-04-15T03:03:35;6.30;99.90
42833;DHT22;64089;51.478;5.692;2023-04-15T03:06:01;6.30;99.90
42833;DHT22;64089;51.478;5.692;2023-04-15T03:08:26;6.20;99.90
42833;DHT22;64089;51.478;5.692;2023-04-15T03:10:52;6.20;99.90
42833;DHT22;64089;51.478;5.692;2023-04-15T03:13:19;6.20;99.90
42833;DHT22;64089;51.478;5.692;2023-04-15T03:15:48;6.20;99.90
42833;DHT22;64089;51.478;5.692;2023-04-15T03:18:13;6.20;99.90
42833;DHT22;64089;51.478;5.692;2023-04-15T03:20:39;6.10;99.90
42833;DHT22;64089;51.478;5.692;2023-04-15T03:23:05;6.10;99.90
42833;DHT22;64089;51.478;5.692;2023-04-15T03:25:31;6.10;99.90
42833;DHT22;64089;51.478;5.692;2023-04-15T03:27:56;6.10;99.90
42833;DHT22;64089;51.478;5.692;2023-04-15T03:30:22;6.10;99.90
42833;DHT22;64089;51.478;5.692;2023-04-15T03:32:48;6.10;99.90
42833;DHT22;64089;51.478;5.692;2023-04-15T03:35:13;6.00;99.90
42833;DHT22;64089;51.478;5.692;2023-04-15T03:37:39;6.00;99.90
42833;DHT22;64089;51.478;5.692;2023-04-15T03:40:05;6.00;99.90
42833;DHT22;64089;51.478;5.692;2023-04-15T03:42:31;6.00;99.90
42833;DHT22;64089;51.478;5.692;2023-04-15T03:44:57;5.90;99.90
42833;DHT22;64089;51.478;5.692;2023-04-15T03:47:22;5.90;99.90
42833;DHT22;64089;51.478;5.692;2023-04-15T03:49:48;5.90;99.90
42833;DHT22;64089;51.478;5.692;2023-04-15T03:52:13;5.90;99.90
42833;DHT22;64089;51.478;5.692;2023-04-15T03:54:39;5.80;99.90
42833;DHT22;64089;51.478;5.692;2023-04-15T03:57:04;5.80;99.90
42833;DHT22;64089;51.478;5.692;2023-04-15T03:59:30;5.80;99.90
42833;DHT22;64089;51.478;5.692;2023-04-15T04:01:56;5.80;99.90
42833;DHT22;64089;51.478;5.692;2023-04-15T04:04:22;5.80;99.90
42833;DHT22;64089;51.478;5.692;2023-04-15T04:06:47;5.80;99.90
42833;DHT22;64089;51.478;5.692;2023-04-15T04:09:13;5.70;99.90
42833;DHT22;64089;51.478;5.692;2023-04-15T04:11:38;5.80;99.90
42833;DHT22;64089;51.478;5.692;2023-04-15T04:14:04;5.70;99.90
42833;DHT22;64089;51.478;5.692;2023-04-15T04:16:30;5.70;99.90
42833;DHT22;64089;51.478;5.692;2023-04-15T04:18:55;5.80;99.90
42833;DHT22;64089;51.478;5.692;2023-04-15T04:21:21;5.70;99.90
42833;DHT22;64089;51.478;5.692;2023-04-15T04:23:46;5.70;99.90
42833;DHT22;64089;51.478;5.692;2023-04-15T04:26:12;5.70;99.90
42833;DHT22;64089;51.478;5.692;2023-04-15T04:28:38;5.70;99.90
42833;DHT22;64089;51.478;5.692;2023-04-15T04:31:05;5.60;99.90
42833;DHT22;64089;51.478;5.692;2023-04-15T04:33:31;5.60;99.90
42833;DHT22;64089;51.478;5.692;2023-04-15T04:35:57;5.60;99.90
42833;DHT22;64089;51.478;5.692;2023-04-15T04:38:23;5.60;99.90
42833;DHT22;64089;51.478;5.692;2023-04-15T04:40:48;5.60;99.90
42833;DHT22;64089;51.478;5.692;2023-04-15T04:43:14;5.60;99.90
42833;DHT22;64089;51.478;5.692;2023-04-15T04:45:41;5.60;99.90
42833;DHT22;64089;51.478;5.692;2023-04-15T04:48:07;5.60;99.90
42833;DHT22;64089;51.478;5.692;2023-04-15T04:50:33;5.60;99.90
42833;DHT22;64089;51.478;5.692;2023-04-15T04:53:01;5.60;99.90
42833;DHT22;64089;51.478;5.692;2023-04-15T04:55:26;5.60;99.90
42833;DHT22;64089;51.478;5.692;2023-04-15T04:57:52;5.60;99.90
42833;DHT22;64089;51.478;5.692;2023-04-15T05:00:18;5.60;99.90
42833;DHT22;64089;51.478;5.692;2023-04-15T05:02:44;5.70;99.90
42833;DHT22;64089;51.478;5.692;2023-04-15T05:05:10;5.70;99.90
42833;DHT22;64089;51.478;5.692;2023-04-15T05:07:36;5.70;99.90
42833;DHT22;64089;51.478;5.692;2023-04-15T05:10:02;5.70;99.90
42833;DHT22;64089;51.478;5.692;2023-04-15T05:12:28;5.70;99.90
42833;DHT22;64089;51.478;5.692;2023-04-15T05:14:54;5.80;99.90
42833;DHT22;64089;51.478;5.692;2023-04-15T05:17:19;5.80;99.90
42833;DHT22;64089;51.478;5.692;2023-04-15T05:19:45;5.80;99.90
42833;DHT22;64089;51.478;5.692;2023-04-15T05:22:10;5.80;99.90
42833;DHT22;64089;51.478;5.692;2023-04-15T05:24:36;5.90;99.90
42833;DHT22;64089;51.478;5.692;2023-04-15T05:27:02;5.90;99.90
42833;DHT22;64089;51.478;5.692;2023-04-15T05:29:28;5.90;99.90
42833;DHT22;64089;51.478;5.692;2023-04-15T05:31:53;6.00;99.90
42833;DHT22;64089;51.478;5.692;2023-04-15T05:34:19;6.00;99.90
42833;DHT22;64089;51.478;5.692;2023-04-15T05:36:44;6.10;99.90
42833;DHT22;64089;51.478;5.692;2023-04-15T05:39:10;6.10;99.90
42833;DHT22;64089;51.478;5.692;2023-04-15T05:41:35;6.20;99.90
42833;DHT22;64089;51.478;5.692;2023-04-15T05:44:01;6.10;99.90
42833;DHT22;64089;51.478;5.692;2023-04-15T05:46:27;6.10;99.90
42833;DHT22;64089;51.478;5.692;2023-04-15T05:48:52;6.20;99.90
42833;DHT22;64089;51.478;5.692;2023-04-15T05:51:18;6.20;99.90
42833;DHT22;64089;51.478;5.692;2023-04-15T05:53:44;6.20;99.90
42833;DHT22;64089;51.478;5.692;2023-04-15T05:56:10;6.30;99.90
42833;DHT22;64089;51.478;5.692;2023-04-15T05:58:36;6.30;99.90
42833;DHT22;64089;51.478;5.692;2023-04-15T06:01:02;6.30;99.90
42833;DHT22;64089;51.478;5.692;2023-04-15T06:03:28;6.40;99.90
42833;DHT22;64089;51.478;5.692;2023-04-15T06:05:53;6.40;99.90
42833;DHT22;64089;51.478;5.692;2023-04-15T06:08:19;6.50;99.90
42833;DHT22;64089;51.478;5.692;2023-04-15T06:10:45;6.50;99.90
42833;DHT22;64089;51.478;5.692;2023-04-15T06:13:11;6.60;99.90
42833;DHT22;64089;51.478;5.692;2023-04-15T06:15:37;6.70;99.90
42833;DHT22;64089;51.478;5.692;2023-04-15T06:18:03;6.70;99.90
42833;DHT22;64089;51.478;5.692;2023-04-15T06:20:28;6.70;99.90
42833;DHT22;64089;51.478;5.692;2023-04-15T06:22:54;6.80;99.90
42833;DHT22;64089;51.478;5.692;2023-04-15T06:25:20;6.80;99.90
42833;DHT22;64089;51.478;5.692;2023-04-15T06:27:45;6.90;99.90
42833;DHT22;64089;51.478;5.692;2023-04-15T06:30:11;6.90;99.90
42833;DHT22;64089;51.478;5.692;2023-04-15T06:32:36;6.90;99.90
42833;DHT22;64089;51.478;5.692;2023-04-15T06:35:02;6.90;99.90
42833;DHT22;64089;51.478;5.692;2023-04-15T06:37:28;7.00;99.90
42833;DHT22;64089;51.478;5.692;2023-04-15T06:39:54;7.00;99.90
42833;DHT22;64089;51.478;5.692;2023-04-15T06:42:19;7.00;99.90
42833;DHT22;64089;51.478;5.692;2023-04-15T06:44:45;7.00;99.90
42833;DHT22;64089;51.478;5.692;2023-04-15T06:47:11;7.10;99.90
42833;DHT22;64089;51.478;5.692;2023-04-15T06:49:39;7.10;99.90
42833;DHT22;64089;51.478;5.692;2023-04-15T06:52:04;7.20;99.90
42833;DHT22;64089;51.478;5.692;2023-04-15T06:54:30;7.20;99.90
42833;DHT22;64089;51.478;5.692;2023-04-15T06:56:56;7.30;99.90
42833;DHT22;64089;51.478;5.692;2023-04-15T06:59:21;7.40;99.90
42833;DHT22;64089;51.478;5.692;2023-04-15T07:01:47;7.40;99.90
42833;DHT22;64089;51.478;5.692;2023-04-15T07:04:13;7.50;99.90
42833;DHT22;64089;51.478;5.692;2023-04-15T07:06:38;7.60;99.90
42833;DHT22;64089;51.478;5.692;2023-04-15T07:09:04;7.70;99.90
42833;DHT22;64089;51.478;5.692;2023-04-15T07:11:29;7.80;99.90
42833;DHT22;64089;51.478;5.692;2023-04-15T07:13:57;7.90;99.90
42833;DHT22;64089;51.478;5.692;2023-04-15T07:16:22;8.00;99.90
42833;DHT22;64089;51.478;5.692;2023-04-15T07:18:48;8.10;99.90
42833;DHT22;64089;51.478;5.692;2023-04-15T07:21:13;8.30;99.90
42833;DHT22;64089;51.478;5.692;2023-04-15T07:23:39;8.30;99.90
42833;DHT22;64089;51.478;5.692;2023-04-15T07:26:05;8.30;99.90
42833;DHT22;64089;51.478;5.692;2023-04-15T07:28:30;8.50;99.90
42833;DHT22;64089;51.478;5.692;2023-04-15T07:30:56;8.50;99.90
42833;DHT22;64089;51.478;5.692;2023-04-15T07:33:22;8.70;99.90
42833;DHT22;64089;51.478;5.692;2023-04-15T07:35:48;8.80;99.90
42833;DHT22;64089;51.478;5.692;2023-04-15T07:38:14;8.90;99.90
42833;DHT22;64089;51.478;5.692;2023-04-15T07:40:39;9.00;99.90
42833;DHT22;64089;51.478;5.692;2023-04-15T07:43:06;9.10;99.90
42833;DHT22;64089;51.478;5.692;2023-04-15T07:45:33;9.10;99.90
42833;DHT22;64089;51.478;5.692;2023-04-15T07:48:00;9.20;99.90
42833;DHT22;64089;51.478;5.692;2023-04-15T07:50:26;9.30;99.90
42833;DHT22;64089;51.478;5.692;2023-04-15T07:52:52;9.50;99.90
42833;DHT22;64089;51.478;5.692;2023-04-15T07:55:18;9.70;99.90
42833;DHT22;64089;51.478;5.692;2023-04-15T07:57:46;9.90;99.90
42833;DHT22;64089;51.478;5.692;2023-04-15T08:00:12;9.80;99.90
42833;DHT22;64089;51.478;5.692;2023-04-15T08:02:39;9.90;99.90
42833;DHT22;64089;51.478;5.692;2023-04-15T08:05:05;9.90;99.90
42833;DHT22;64089;51.478;5.692;2023-04-15T08:07:31;9.90;99.90
42833;DHT22;64089;51.478;5.692;2023-04-15T08:09:57;10.00;99.90
42833;DHT22;64089;51.478;5.692;2023-04-15T08:12:23;10.10;99.90
42833;DHT22;64089;51.478;5.692;2023-04-15T08:14:49;10.20;99.90
42833;DHT22;64089;51.478;5.692;2023-04-15T08:17:18;10.40;99.90
42833;DHT22;64089;51.478;5.692;2023-04-15T08:19:44;10.40;99.90
42833;DHT22;64089;51.478;5.692;2023-04-15T08:22:10;10.40;99.90
42833;DHT22;64089;51.478;5.692;2023-04-15T08:24:36;10.50;99.90
42833;DHT22;64089;51.478;5.692;2023-04-15T08:27:03;10.50;99.90
42833;DHT22;64089;51.478;5.692;2023-04-15T08:29:30;10.50;99.90
42833;DHT22;64089;51.478;5.692;2023-04-15T08:31:56;10.60;99.90
42833;DHT22;64089;51.478;5.692;2023-04-15T08:34:22;10.50;99.90
42833;DHT22;64089;51.478;5.692;2023-04-15T08:36:48;10.60;99.90
42833;DHT22;64089;51.478;5.692;2023-04-15T08:39:14;10.50;99.90
42833;DHT22;64089;51.478;5.692;2023-04-15T08:41:50;10.50;99.90
42833;DHT22;64089;51.478;5.692;2023-04-15T08:44:17;10.50;99.90
42833;DHT22;64089;51.478;5.692;2023-04-15T08:46:42;10.50;99.90
42833;DHT22;64089;51.478;5.692;2023-04-15T08:49:10;10.50;99.90
42833;DHT22;64089;51.478;5.692;2023-04-15T08:51:40;10.50;99.90
42833;DHT22;64089;51.478;5.692;2023-04-15T08:54:07;10.50;99.90
42833;DHT22;64089;51.478;5.692;2023-04-15T08:56:33;10.60;99.90
42833;DHT22;64089;51.478;5.692;2023-04-15T08:59:00;10.60;99.90
42833;DHT22;64089;51.478;5.692;2023-04-15T09:01:26;10.60;99.90
42833;DHT22;64089;51.478;5.692;2023-04-15T09:03:52;10.70;99.90
42833;DHT22;64089;51.478;5.692;2023-04-15T09:06:21;10.80;99.90
42833;DHT22;64089;51.478;5.692;2023-04-15T09:08:47;10.90;99.90
42833;DHT22;64089;51.478;5.692;2023-04-15T09:11:13;11.00;99.90
42833;DHT22;64089;51.478;5.692;2023-04-15T09:13:39;11.00;99.90
42833;DHT22;64089;51.478;5.692;2023-04-15T09:16:05;11.20;99.90
42833;DHT22;64089;51.478;5.692;2023-04-15T09:18:34;11.40;99.90
42833;DHT22;64089;51.478;5.692;2023-04-15T09:21:08;11.50;99.90
42833;DHT22;64089;51.478;5.692;2023-04-15T09:23:36;11.50;99.90
42833;DHT22;64089;51.478;5.692;2023-04-15T09:26:03;11.60;99.90
42833;DHT22;64089;51.478;5.692;2023-04-15T09:28:29;11.40;99.90
42833;DHT22;64089;51.478;5.692;2023-04-15T09:30:59;11.40;99.90
42833;DHT22;64089;51.478;5.692;2023-04-15T09:33:26;11.50;99.90
42833;DHT22;64089;51.478;5.692;2023-04-15T09:36:03;11.30;99.90
42833;DHT22;64089;51.478;5.692;2023-04-15T09:38:30;11.50;99.90
42833;DHT22;64089;51.478;5.692;2023-04-15T09:40:57;11.50;99.90
42833;DHT22;64089;51.478;5.692;2023-04-15T09:43:39;11.60;99.90
42833;DHT22;64089;51.478;5.692;2023-04-15T09:46:05;11.70;99.90
42833;DHT22;64089;51.478;5.692;2023-04-15T09:48:31;11.80;99.90
42833;DHT22;64089;51.478;5.692;2023-04-15T09:50:57;11.60;99.90
42833;DHT22;64089;51.478;5.692;2023-04-15T09:53:24;11.70;99.90
42833;DHT22;64089;51.478;5.692;2023-04-15T09:55:59;11.70;99.90
42833;DHT22;64089;51.478;5.692;2023-04-15T09:58:28;11.90;99.90
42833;DHT22;64089;51.478;5.692;2023-04-15T10:00:55;11.90;99.90
42833;DHT22;64089;51.478;5.692;2023-04-15T10:03:26;11.90;99.90
42833;DHT22;64089;51.478;5.692;2023-04-15T10:05:54;12.00;99.90
42833;DHT22;64089;51.478;5.692;2023-04-15T10:08:27;12.30;99.90
42833;DHT22;64089;51.478;5.692;2023-04-15T10:10:54;12.30;99.90
42833;DHT22;64089;51.478;5.692;2023-04-15T10:13:25;12.20;99.90
42833;DHT22;64089;51.478;5.692;2023-04-15T10:16:04;12.20;99.90
42833;DHT22;64089;51.478;5.692;2023-04-15T10:18:34;12.20;99.90
42833;DHT22;64089;51.478;5.692;2023-04-15T10:21:00;12.20;99.90
42833;DHT22;64089;51.478;5.692;2023-04-15T10:23:26;12.40;99.90
42833;DHT22;64089;51.478;5.692;2023-04-15T10:25:53;12.50;99.90
42833;DHT22;64089;51.478;5.692;2023-04-15T10:28:19;12.50;99.90
42833;DHT22;64089;51.478;5.692;2023-04-15T10:30:47;12.40;99.90
42833;DHT22;64089;51.478;5.692;2023-04-15T10:33:16;12.40;99.90
42833;DHT22;64089;51.478;5.692;2023-04-15T10:35:43;12.30;99.90
42833;DHT22;64089;51.478;5.692;2023-04-15T10:38:38;12.60;99.90
42833;DHT22;64089;51.478;5.692;2023-04-15T10:41:23;12.70;99.90
42833;DHT22;64089;51.478;5.692;2023-04-15T10:43:53;12.90;99.90
42833;DHT22;64089;51.478;5.692;2023-04-15T10:46:38;12.80;99.90
42833;DHT22;64089;51.478;5.692;2023-04-15T10:49:12;12.60;99.90
42833;DHT22;64089;51.478;5.692;2023-04-15T10:51:42;12.50;99.90
42833;DHT22;64089;51.478;5.692;2023-04-15T10:59:35;12.80;99.90
42833;DHT22;64089;51.478;5.692;2023-04-15T11:02:03;12.90;99.90
42833;DHT22;64089;51.478;5.692;2023-04-15T11:04:51;13.00;99.90
42833;DHT22;64089;51.478;5.692;2023-04-15T11:12:47;12.80;99.90
42833;DHT22;64089;51.478;5.692;2023-04-15T11:15:36;13.00;99.90
42833;DHT22;64089;51.478;5.692;2023-04-15T11:20:33;13.00;99.90
42833;DHT22;64089;51.478;5.692;2023-04-15T11:22:58;13.20;99.90
42833;DHT22;64089;51.478;5.692;2023-04-15T11:25:25;13.30;99.90
42833;DHT22;64089;51.478;5.692;2023-04-15T11:27:52;13.20;99.90
42833;DHT22;64089;51.478;5.692;2023-04-15T11:30:21;13.10;99.90
42833;DHT22;64089;51.478;5.692;2023-04-15T11:32:51;13.20;99.90
42833;DHT22;64089;51.478;5.692;2023-04-15T11:35:17;13.10;99.90
42833;DHT22;64089;51.478;5.692;2023-04-15T11:37:47;13.10;99.90
42833;DHT22;64089;51.478;5.692;2023-04-15T11:40:22;13.30;99.90
42833;DHT22;64089;51.478;5.692;2023-04-15T11:43:13;13.30;99.90
42833;DHT22;64089;51.478;5.692;2023-04-15T11:45:53;13.40;99.90
42833;DHT22;64089;51.478;5.692;2023-04-15T11:48:22;13.20;99.90
42833;DHT22;64089;51.478;5.692;2023-04-15T11:50:56;13.10;99.90
42833;DHT22;64089;51.478;5.692;2023-04-15T11:53:23;13.30;99.90
42833;DHT22;64089;51.478;5.692;2023-04-15T11:55:52;13.50;99.90
42833;DHT22;64089;51.478;5.692;2023-04-15T11:58:20;13.50;99.90
42833;DHT22;64089;51.478;5.692;2023-04-15T12:00:55;13.30;99.90
42833;DHT22;64089;51.478;5.692;2023-04-15T12:03:24;13.40;99.90
42833;DHT22;64089;51.478;5.692;2023-04-15T12:06:17;13.50;99.90
42833;DHT22;64089;51.478;5.692;2023-04-15T12:08:58;13.50;99.90
42833;DHT22;64089;51.478;5.692;2023-04-15T12:11:51;13.50;99.90
42833;DHT22;64089;51.478;5.692;2023-04-15T12:14:25;13.60;99.90
42833;DHT22;64089;51.478;5.692;2023-04-15T12:17:04;13.60;99.90
42833;DHT22;64089;51.478;5.692;2023-04-15T12:19:38;14.00;99.90
42833;DHT22;64089;51.478;5.692;2023-04-15T12:24:32;14.40;99.90
42833;DHT22;64089;51.478;5.692;2023-04-15T12:27:02;14.50;99.90
42833;DHT22;64089;51.478;5.692;2023-04-15T12:29:29;14.60;99.90
42833;DHT22;64089;51.478;5.692;2023-04-15T12:32:14;14.50;99.90
42833;DHT22;64089;51.478;5.692;2023-04-15T12:34:41;14.20;99.90
42833;DHT22;64089;51.478;5.692;2023-04-15T12:37:09;13.90;99.90
42833;DHT22;64089;51.478;5.692;2023-04-15T12:39:40;13.90;99.70
42833;DHT22;64089;51.478;5.692;2023-04-15T12:42:07;14.20;99.90
42833;DHT22;64089;51.478;5.692;2023-04-15T12:44:34;14.20;99.90
42833;DHT22;64089;51.478;5.692;2023-04-15T12:47:00;14.20;99.90
42833;DHT22;64089;51.478;5.692;2023-04-15T12:49:26;14.10;99.90
42833;DHT22;64089;51.478;5.692;2023-04-15T12:51:54;14.30;99.90
42833;DHT22;64089;51.478;5.692;2023-04-15T12:54:20;14.20;99.80
42833;DHT22;64089;51.478;5.692;2023-04-15T12:56:47;14.40;99.90
42833;DHT22;64089;51.478;5.692;2023-04-15T12:59:13;14.80;99.30
42833;DHT22;64089;51.478;5.692;2023-04-15T13:01:39;15.00;99.40
42833;DHT22;64089;51.478;5.692;2023-04-15T13:04:05;14.90;99.50
42833;DHT22;64089;51.478;5.692;2023-04-15T13:06:31;14.70;99.90
42833;DHT22;64089;51.478;5.692;2023-04-15T13:09:01;14.90;99.90
42833;DHT22;64089;51.478;5.692;2023-04-15T13:11:28;14.60;99.80
42833;DHT22;64089;51.478;5.692;2023-04-15T13:13:56;14.30;99.90
42833;DHT22;64089;51.478;5.692;2023-04-15T13:16:22;14.20;99.90
42833;DHT22;64089;51.478;5.692;2023-04-15T13:18:48;14.60;99.90
42833;DHT22;64089;51.478;5.692;2023-04-15T13:21:13;14.50;99.90
42833;DHT22;64089;51.478;5.692;2023-04-15T13:23:41;14.40;99.60
42833;DHT22;64089;51.478;5.692;2023-04-15T13:26:07;14.70;99.90
42833;DHT22;64089;51.478;5.692;2023-04-15T13:28:33;15.00;99.90
42833;DHT22;64089;51.478;5.692;2023-04-15T13:30:58;14.70;99.80
42833;DHT22;64089;51.478;5.692;2023-04-15T13:33:24;14.60;99.90
42833;DHT22;64089;51.478;5.692;2023-04-15T13:35:50;14.50;99.90
42833;DHT22;64089;51.478;5.692;2023-04-15T13:38:16;14.70;99.60
42833;DHT22;64089;51.478;5.692;2023-04-15T13:40:42;14.70;99.20
42833;DHT22;64089;51.478;5.692;2023-04-15T13:43:07;14.50;99.60
42833;DHT22;64089;51.478;5.692;2023-04-15T13:45:33;14.60;99.50
42833;DHT22;64089;51.478;5.692;2023-04-15T13:47:59;15.10;99.40
42833;DHT22;64089;51.478;5.692;2023-04-15T13:50:24;15.40;99.10
42833;DHT22;64089;51.478;5.692;2023-04-15T13:52:50;15.50;99.60
42833;DHT22;64089;51.478;5.692;2023-04-15T13:55:19;15.10;98.90
42833;DHT22;64089;51.478;5.692;2023-04-15T13:57:44;15.00;98.70
42833;DHT22;64089;51.478;5.692;2023-04-15T14:00:10;15.10;99.40
42833;DHT22;64089;51.478;5.692;2023-04-15T14:02:36;15.60;99.70
42833;DHT22;64089;51.478;5.692;2023-04-15T14:05:02;15.40;99.10
42833;DHT22;64089;51.478;5.692;2023-04-15T14:07:29;14.80;99.10
42833;DHT22;64089;51.478;5.692;2023-04-15T14:09:55;15.00;99.90
42833;DHT22;64089;51.478;5.692;2023-04-15T14:12:21;15.10;99.50
42833;DHT22;64089;51.478;5.692;2023-04-15T14:14:46;14.70;99.90
42833;DHT22;64089;51.478;5.692;2023-04-15T14:17:12;14.60;99.60
42833;DHT22;64089;51.478;5.692;2023-04-15T14:19:38;14.60;99.90
42833;DHT22;64089;51.478;5.692;2023-04-15T14:22:04;14.70;99.70
42833;DHT22;64089;51.478;5.692;2023-04-15T14:24:29;14.70;99.90
42833;DHT22;64089;51.478;5.692;2023-04-15T14:26:55;14.60;99.60
42833;DHT22;64089;51.478;5.692;2023-04-15T14:29:22;14.60;99.60
42833;DHT22;64089;51.478;5.692;2023-04-15T14:31:47;14.30;99.50
42833;DHT22;64089;51.478;5.692;2023-04-15T14:34:14;14.50;99.80
42833;DHT22;64089;51.478;5.692;2023-04-15T14:36:43;14.20;99.80
42833;DHT22;64089;51.478;5.692;2023-04-15T14:39:09;14.20;99.90
42833;DHT22;64089;51.478;5.692;2023-04-15T14:41:35;14.50;99.90
42833;DHT22;64089;51.478;5.692;2023-04-15T14:44:00;14.40;99.90
42833;DHT22;64089;51.478;5.692;2023-04-15T14:46:26;14.20;99.40
42833;DHT22;64089;51.478;5.692;2023-04-15T14:48:52;14.10;99.30
42833;DHT22;64089;51.478;5.692;2023-04-15T14:51:18;14.20;99.40
42833;DHT22;64089;51.478;5.692;2023-04-15T14:53:44;14.30;99.90
42833;DHT22;64089;51.478;5.692;2023-04-15T14:56:10;14.60;99.60
42833;DHT22;64089;51.478;5.692;2023-04-15T14:58:35;14.50;99.20
42833;DHT22;64089;51.478;5.692;2023-04-15T15:01:02;14.00;99.60
42833;DHT22;64089;51.478;5.692;2023-04-15T15:03:28;13.80;99.90
42833;DHT22;64089;51.478;5.692;2023-04-15T15:05:54;13.60;99.90
42833;DHT22;64089;51.478;5.692;2023-04-15T15:08:22;13.40;99.90
42833;DHT22;64089;51.478;5.692;2023-04-15T15:10:47;13.30;99.90
42833;DHT22;64089;51.478;5.692;2023-04-15T15:13:13;13.10;99.90
42833;DHT22;64089;51.478;5.692;2023-04-15T15:15:39;12.90;99.90
42833;DHT22;64089;51.478;5.692;2023-04-15T15:18:05;12.90;99.90
42833;DHT22;64089;51.478;5.692;2023-04-15T15:20:31;13.00;99.90
42833;DHT22;64089;51.478;5.692;2023-04-15T15:22:57;13.20;99.90
42833;DHT22;64089;51.478;5.692;2023-04-15T15:25:23;13.30;99.90
42833;DHT22;64089;51.478;5.692;2023-04-15T15:27:49;13.20;99.90
42833;DHT22;64089;51.478;5.692;2023-04-15T15:30:14;13.40;99.90
42833;DHT22;64089;51.478;5.692;2023-04-15T15:32:41;13.50;99.90
42833;DHT22;64089;51.478;5.692;2023-04-15T15:35:07;13.50;99.90
42833;DHT22;64089;51.478;5.692;2023-04-15T15:37:34;13.70;99.90
42833;DHT22;64089;51.478;5.692;2023-04-15T15:40:02;13.70;99.90
42833;DHT22;64089;51.478;5.692;2023-04-15T15:42:30;13.70;99.90
42833;DHT22;64089;51.478;5.692;2023-04-15T15:44:56;13.60;99.90
42833;DHT22;64089;51.478;5.692;2023-04-15T15:47:22;13.40;99.90
42833;DHT22;64089;51.478;5.692;2023-04-15T15:49:47;13.30;99.90
42833;DHT22;64089;51.478;5.692;2023-04-15T15:52:13;12.90;99.90
42833;DHT22;64089;51.478;5.692;2023-04-15T15:54:39;12.80;99.90